Time;durP1;ratioP1;P1;durP2;ratioP2;P2;SDS_P1;SDS_P2;PMS_P1;PMS_P2;Temp;Humidity;BMP_temperature;BMP_pressure;BME280_temperature;BME280_humidity;BME280_pressure;Samples;Min_cycle;Max_cycle;Signal;HPM_P1;HPM_P2
2021/01/03 05:24:08;;;;;;;14.68;10.60;;;;;;;5.19;75.85;99888.97;5335532;26;20077;-89
2021/01/03 05:26:53;;;;;;;18.00;12.57;;;;;;;5.32;75.22;99897.75;5341478;26;20468;-89
2021/01/03 05:29:28;;;;;;;17.02;10.80;;;;;;;5.26;75.24;99902.91;5341473;26;20079;-88
2021/01/03 06:24:32;;;;;;;25.12;16.35;;;;;;;5.84;71.01;99922.41;5334914;26;20102;-88
2021/01/03 06:27:28;;;;;;;28.87;19.05;;;;;;;5.80;71.17;99930.22;5344614;26;20062;-88
2021/01/03 06:30:18;;;;;;;24.10;17.98;;;;;;;5.85;71.20;99926.78;5328638;26;20032;-88
2021/01/03 06:32:53;;;;;;;25.05;17.02;;;;;;;5.74;71.08;99932.81;5344798;26;20411;-88
2021/01/03 06:35:34;;;;;;;30.50;20.67;;;;;;;5.85;70.33;99939.81;5324939;26;20545;-88
2021/01/03 07:22:13;;;;;;;17.92;12.25;;;;;;;5.14;74.87;99929.72;5321646;26;20431;-86
2021/01/03 07:24:50;;;;;;;19.15;12.68;;;;;;;4.94;75.47;99921.72;5325213;26;20044;-86
2021/01/03 07:27:43;;;;;;;20.08;13.13;;;;;;;4.82;76.19;99925.09;5343887;26;20072;-87
2021/01/03 07:52:59;;;;;;;27.20;17.00;;;;;;;4.05;79.89;99949.34;5310919;26;20137;-87
2021/01/03 07:55:31;;;;;;;26.33;18.55;;;;;;;4.00;79.59;99946.72;5323829;26;20482;-89
2021/01/03 07:58:14;;;;;;;21.92;13.10;;;;;;;4.84;77.04;99936.41;5345896;26;20045;-89
2021/01/03 08:24:17;;;;;;;25.20;18.98;;;;;;;6.10;74.70;99961.72;5345883;26;20029;-86
2021/01/03 08:27:14;;;;;;;22.23;16.60;;;;;;;6.75;71.47;99961.97;5348593;26;20131;-86
2021/01/03 08:30:10;;;;;;;20.08;13.95;;;;;;;5.87;74.72;99964.16;5346452;26;20053;-86
2021/01/03 08:32:39;;;;;;;20.73;15.43;;;;;;;5.90;74.91;99965.91;5348694;26;20068;-86
2021/01/03 08:35:23;;;;;;;22.65;13.62;;;;;;;6.13;74.37;99960.88;5350030;26;20080;-86
2021/01/03 08:37:50;;;;;;;21.92;13.52;;;;;;;5.82;74.84;99970.19;5329626;26;20113;-86
2021/01/03 08:40:28;;;;;;;19.70;16.08;;;;;;;5.72;75.56;99977.09;5329467;26;20109;-86
2021/01/03 08:43:08;;;;;;;20.77;16.58;;;;;;;6.09;73.86;99980.84;5348671;26;20071;-86
2021/01/03 08:45:43;;;;;;;19.73;15.57;;;;;;;6.00;74.77;99978.19;5349569;26;20120;-86
2021/01/03 08:48:20;;;;;;;20.75;13.18;;;;;;;6.13;73.92;99986.94;5330306;26;20069;-86
2021/01/03 08:50:47;;;;;;;17.40;12.13;;;;;;;6.62;71.88;99997.62;5349699;26;20044;-86
2021/01/03 08:53:21;;;;;;;16.55;11.65;;;;;;;6.64;72.11;99993.25;5349536;26;20111;-86
2021/01/03 08:55:49;;;;;;;16.65;11.45;;;;;;;6.48;72.58;99994.97;5348405;26;20057;-85
2021/01/03 08:58:19;;;;;;;17.85;12.73;;;;;;;6.68;72.24;99992.44;5330420;26;20087;-84
2021/01/03 09:38:39;;;;;;;13.88;10.43;;;;;;;8.41;68.12;100005.56;5311996;26;20060;-84
2021/01/03 09:41:23;;;;;;;17.20;11.98;;;;;;;8.79;65.91;99994.03;5266843;26;20631;-85
2021/01/03 09:44:01;;;;;;;17.00;10.82;;;;;;;9.16;64.54;99985.97;5327134;26;20068;-85
2021/01/03 09:46:36;;;;;;;14.77;10.80;;;;;;;9.03;64.83;99979.03;5348746;26;20753;-85
2021/01/03 09:49:12;;;;;;;15.00;10.82;;;;;;;8.99;66.03;99987.81;5347576;26;20112;-85
2021/01/03 09:51:58;;;;;;;17.37;11.65;;;;;;;9.58;62.84;99976.03;5347830;26;20091;-87
2021/01/03 09:54:34;;;;;;;16.65;11.70;;;;;;;9.61;63.79;99978.63;5349649;26;20094;-85
2021/01/03 09:57:01;;;;;;;15.95;11.88;;;;;;;9.16;65.86;99980.72;5352138;26;20068;-85
2021/01/03 09:59:28;;;;;;;16.80;11.30;;;;;;;9.28;64.67;99970.16;5332848;26;20024;-84
2021/01/03 11:22:57;;;;;;;13.60;9.73;;;;;;;9.72;65.53;99929.56;5308939;26;20095;-85
2021/01/03 11:25:45;;;;;;;14.80;11.02;;;;;;;9.27;64.58;99930.84;5332592;26;20467;-85
2021/01/03 11:28:13;;;;;;;13.73;9.98;;;;;;;9.58;66.78;99936.69;5349668;26;20048;-85
2021/01/03 11:30:40;;;;;;;13.10;9.15;;;;;;;9.49;65.83;99926.28;5350399;26;20029;-85
2021/01/03 11:33:11;;;;;;;13.20;9.70;;;;;;;9.72;64.83;99932.19;5352477;26;20125;-85
2021/01/03 11:35:38;;;;;;;12.32;9.32;;;;;;;9.96;61.63;99925.81;5330658;26;20071;-85
2021/01/03 11:38:05;;;;;;;17.73;11.45;;;;;;;9.78;62.94;99924.25;5330767;26;20027;-85
2021/01/03 11:40:31;;;;;;;15.73;9.57;;;;;;;9.73;64.54;99922.56;5349802;26;20068;-85
2021/01/03 11:42:58;;;;;;;11.95;9.05;;;;;;;10.14;60.00;99929.12;5350716;26;20080;-85
2021/01/03 11:45:26;;;;;;;12.85;9.23;;;;;;;10.43;60.22;99928.78;5331876;26;20039;-85
2021/01/03 11:47:53;;;;;;;13.20;9.88;;;;;;;10.16;62.37;99929.97;5329901;26;20464;-85
2021/01/03 11:50:23;;;;;;;14.38;9.68;;;;;;;9.73;63.09;99918.16;5329707;26;20052;-85
2021/01/03 11:52:50;;;;;;;12.25;9.35;;;;;;;9.64;63.28;99920.88;5348698;26;20032;-85
2021/01/03 11:55:18;;;;;;;14.43;10.63;;;;;;;9.50;63.06;99920.13;5349100;26;20480;-86
2021/01/03 11:57:45;;;;;;;13.90;9.70;;;;;;;9.64;61.12;99909.53;5327714;26;20104;-85
2021/01/03 12:00:15;;;;;;;15.93;10.48;;;;;;;9.58;62.82;99920.94;5328122;26;20067;-85
2021/01/03 12:02:41;;;;;;;13.15;8.48;;;;;;;9.71;63.15;99917.34;5348873;26;20386;-84
2021/01/03 12:05:10;;;;;;;14.35;10.20;;;;;;;8.99;63.85;99919.69;5328515;26;20055;-84
2021/01/03 12:07:36;;;;;;;14.32;9.98;;;;;;;9.38;63.94;99913.25;5328298;26;20059;-84
2021/01/03 12:10:05;;;;;;;15.85;10.55;;;;;;;9.44;63.57;99913.22;5328014;26;20065;-85
2021/01/03 12:12:31;;;;;;;16.73;11.90;;;;;;;9.30;63.94;99918.56;5348283;26;20057;-86
2021/01/03 12:14:57;;;;;;;16.37;10.43;;;;;;;9.72;62.86;99915.56;5347803;26;20060;-85
2021/01/03 12:17:24;;;;;;;13.35;10.60;;;;;;;9.74;63.17;99909.44;5347487;26;20543;-85
2021/01/03 12:19:51;;;;;;;15.07;11.93;;;;;;;9.63;63.05;99907.81;5348196;26;20386;-85
2021/01/03 12:22:18;;;;;;;16.52;12.05;;;;;;;9.32;63.29;99922.06;5328289;26;20119;-85
2021/01/03 12:24:45;;;;;;;13.88;10.23;;;;;;;9.07;64.22;99910.03;5348046;26;20437;-85
2021/01/03 12:27:16;;;;;;;15.35;10.23;;;;;;;9.28;63.83;99915.09;5327658;26;20181;-85
2021/01/03 12:29:43;;;;;;;16.55;11.90;;;;;;;9.40;63.27;99911.50;5347193;26;20052;-87
2021/01/03 12:32:12;;;;;;;13.00;9.27;;;;;;;8.85;65.34;99906.66;5327791;26;20742;-86
2021/01/03 12:34:39;;;;;;;16.45;11.40;;;;;;;9.46;63.82;99910.56;5348192;26;20728;-86
2021/01/03 12:37:17;;;;;;;14.15;10.27;;;;;;;9.73;63.32;99905.03;5329492;26;20037;-86
2021/01/03 12:39:45;;;;;;;14.43;9.90;;;;;;;9.99;61.41;99907.41;5348461;26;20063;-85
2021/01/03 12:42:16;;;;;;;14.80;10.10;;;;;;;10.15;60.90;99908.09;5328672;26;20089;-86
2021/01/03 12:44:42;;;;;;;12.23;9.73;;;;;;;9.89;61.67;99907.53;5348706;26;20071;-85
2021/01/03 12:47:10;;;;;;;11.23;8.73;;;;;;;10.04;61.18;99909.97;5327794;26;20061;-85
2021/01/03 12:49:36;;;;;;;11.07;8.85;;;;;;;9.55;62.75;99913.97;5327958;26;20059;-85
2021/01/03 12:52:04;;;;;;;11.30;8.88;;;;;;;9.62;63.15;99900.78;5326624;26;20086;-85
2021/01/03 12:54:32;;;;;;;12.40;9.30;;;;;;;10.31;61.14;99906.19;5345017;26;20056;-85
2021/01/03 12:56:59;;;;;;;12.57;9.65;;;;;;;10.60;59.47;99911.06;5345493;26;20048;-85
2021/01/03 12:59:27;;;;;;;11.95;8.45;;;;;;;10.67;59.11;99915.31;5345987;26;20413;-85
2021/01/03 13:01:53;;;;;;;12.88;8.85;;;;;;;10.40;60.93;99902.56;5325383;26;20056;-85
2021/01/03 13:04:41;;;;;;;15.80;9.57;;;;;;;9.95;62.34;99905.72;5328696;26;20399;-84
2021/01/03 13:33:39;;;;;;;9.43;5.53;;;;;;;10.54;60.50;99919.03;5337459;26;20081;-85
2021/01/03 13:36:10;;;;;;;13.15;8.52;;;;;;;10.93;59.70;99921.12;5326678;26;20056;-85
2021/01/03 13:38:37;;;;;;;12.07;8.60;;;;;;;10.28;61.51;99918.50;5346824;26;20120;-85
2021/01/03 13:41:04;;;;;;;14.23;7.82;;;;;;;10.22;61.60;99917.63;5327657;26;20115;-86
2021/01/03 13:43:33;;;;;;;18.12;9.02;;;;;;;10.33;62.21;99921.94;5325612;26;20044;-86
2021/01/03 13:46:01;;;;;;;14.30;8.98;;;;;;;10.24;62.65;99928.12;5344549;26;20167;-86
2021/01/03 13:48:27;;;;;;;13.02;9.20;;;;;;;9.93;63.14;99933.72;5324886;26;20079;-85
2021/01/03 13:50:54;;;;;;;11.88;8.48;;;;;;;10.13;62.46;99928.25;5327199;26;20059;-86
2021/01/03 13:53:22;;;;;;;13.75;8.70;;;;;;;9.92;63.22;99934.59;5348492;26;20048;-86
2021/01/03 13:55:50;;;;;;;;;;;;;;;9.85;63.41;99945.16;5330599;26;20052;-86
2021/01/03 13:58:17;;;;;;;11.18;8.32;;;;;;;9.53;64.24;99954.25;5330677;26;20416;-86
2021/01/03 14:00:45;;;;;;;13.50;9.65;;;;;;;9.63;64.20;99947.16;5349816;26;20038;-86
2021/01/03 14:03:12;;;;;;;13.38;9.55;;;;;;;9.80;64.21;99952.25;5328138;26;20042;-85
2021/01/03 14:05:40;;;;;;;14.80;9.35;;;;;;;9.50;65.11;99952.50;5329738;26;20067;-85
2021/01/03 14:08:07;;;;;;;15.88;11.45;;;;;;;9.71;64.24;99958.44;5329919;26;20061;-86
2021/01/03 14:10:34;;;;;;;17.08;10.68;;;;;;;9.51;64.81;99953.38;5347792;26;20190;-86
2021/01/03 14:13:01;;;;;;;16.80;10.40;;;;;;;8.61;66.86;99952.22;5350731;26;20063;-86
2021/01/03 14:15:28;;;;;;;17.27;10.68;;;;;;;9.14;65.14;99943.16;5348946;26;20052;-87
2021/01/03 14:17:54;;;;;;;18.23;11.27;;;;;;;8.49;67.45;99949.66;5348156;26;20048;-85
2021/01/03 14:20:23;;;;;;;17.25;11.55;;;;;;;8.29;67.95;99955.81;5351409;26;20025;-86
2021/01/03 14:22:50;;;;;;;15.35;11.43;;;;;;;8.26;67.84;99953.19;5331104;26;20024;-86
2021/01/03 14:25:25;;;;;;;14.40;11.35;;;;;;;8.44;67.58;99962.75;5350546;26;20822;-86
2021/01/03 14:27:52;;;;;;;18.90;14.07;;;;;;;9.00;65.54;99958.09;5332118;26;20091;-86
2021/01/03 14:30:20;;;;;;;18.08;12.23;;;;;;;9.03;65.34;99958.97;5331628;26;20036;-86
2021/01/03 14:32:54;;;;;;;18.75;13.62;;;;;;;9.13;64.98;99964.16;5312271;27;20058;-86
2021/01/03 14:35:23;;;;;;;16.20;12.48;;;;;;;8.98;65.77;99958.13;5312127;27;20026;-86
2021/01/03 14:37:59;;;;;;;16.10;11.35;;;;;;;8.72;66.52;99967.88;5239199;27;20031;-86
2021/01/03 14:40:50;;;;;;;17.77;13.25;;;;;;;8.41;67.68;99968.91;5310526;27;20067;-86
2021/01/03 14:43:37;;;;;;;17.25;12.52;;;;;;;8.56;67.50;99967.97;5311265;27;20050;-86
2021/01/03 14:46:10;;;;;;;18.37;12.48;;;;;;;8.80;66.21;99971.34;5238807;27;20422;-86
2021/01/03 14:48:59;;;;;;;18.42;12.13;;;;;;;8.90;65.99;99969.53;5308722;27;20496;-86
2021/01/03 14:51:40;;;;;;;20.65;13.85;;;;;;;8.87;66.24;99960.81;5309662;27;20510;-86
2021/01/03 14:54:24;;;;;;;16.75;11.52;;;;;;;8.41;67.74;99968.91;5236553;27;20055;-86
2021/01/03 14:56:56;;;;;;;17.37;12.85;;;;;;;8.52;67.10;99974.06;5309081;27;20370;-86
2021/01/03 14:59:25;;;;;;;21.15;12.37;;;;;;;8.65;66.80;99974.91;5309743;27;20081;-86
2021/01/03 15:02:20;;;;;;;16.60;12.35;;;;;;;8.91;65.89;99969.50;5308617;27;20066;-85
2021/01/03 15:04:51;;;;;;;16.12;12.00;;;;;;;8.34;67.80;99985.47;5234428;27;20058;-86
2021/01/03 15:07:28;;;;;;;16.92;12.30;;;;;;;8.75;66.07;99983.59;5236219;26;20066;-86
2021/01/03 15:10:00;;;;;;;18.75;13.70;;;;;;;8.27;67.62;99986.37;5235176;27;20058;-85
2021/01/03 15:12:31;;;;;;;20.90;15.20;;;;;;;8.25;67.81;99979.38;5234845;27;20076;-86
2021/01/03 15:15:01;;;;;;;25.58;19.20;;;;;;;7.33;71.36;99983.00;5306835;27;20143;-86
2021/01/03 15:17:44;;;;;;;;;;;;;;;7.25;72.18;99987.31;5232829;27;20458;-86
2021/01/03 15:20:21;;;;;;;35.80;25.17;;;;;;;7.08;72.81;99983.81;5235089;27;19974;-86
2021/01/03 15:23:06;;;;;;;32.10;23.10;;;;;;;7.54;70.67;99984.72;5306842;27;20040;-86
2021/01/03 15:25:47;;;;;;;37.72;28.05;;;;;;;7.75;70.11;99981.22;5307406;27;20746;-86
2021/01/03 15:28:20;;;;;;;52.95;35.83;;;;;;;7.09;72.50;99991.66;5234557;27;20057;-86
2021/01/03 15:30:56;;;;;;;67.78;46.35;;;;;;;7.45;71.01;99982.12;5235184;27;20082;-84
2021/01/03 15:33:30;;;;;;;99.62;67.70;;;;;;;7.41;71.34;99996.94;5288837;26;20481;-85
2021/01/03 15:36:03;;;;;;;86.87;60.30;;;;;;;7.62;70.76;99995.19;5345461;26;20392;-85
2021/01/03 15:38:31;;;;;;;52.00;34.28;;;;;;;7.94;69.95;99998.66;5326751;26;20654;-85
2021/01/03 15:41:08;;;;;;;33.90;24.27;;;;;;;8.53;67.43;99994.16;5346388;26;20056;-85
2021/01/03 15:44:03;;;;;;;26.35;18.77;;;;;;;8.80;65.83;99995.78;5327173;26;20036;-86
2021/01/03 15:46:32;;;;;;;21.58;16.20;;;;;;;9.06;64.68;99994.78;5347055;26;20098;-85
2021/01/03 15:49:04;;;;;;;23.55;16.48;;;;;;;9.35;63.70;99993.69;5347073;26;20056;-85
2021/01/03 15:51:35;;;;;;;19.48;14.95;;;;;;;9.48;63.11;99992.72;5347388;26;20061;-85
2021/01/03 15:54:06;;;;;;;25.83;18.90;;;;;;;9.71;62.33;99997.78;5326675;26;20123;-85
2021/01/03 15:56:49;;;;;;;21.42;16.23;;;;;;;9.75;62.14;99997.75;5326588;26;20052;-87
2021/01/03 15:59:17;;;;;;;22.45;16.25;;;;;;;10.00;61.49;99997.53;5326672;26;20028;-86
2021/01/03 16:01:48;;;;;;;23.48;15.20;;;;;;;9.73;62.29;99994.25;5344800;26;20102;-87
2021/01/03 16:04:19;;;;;;;18.75;13.88;;;;;;;9.48;62.86;99996.22;5344839;26;20059;-87
2021/01/03 16:06:47;;;;;;;25.05;17.20;;;;;;;9.80;62.26;99991.59;5326555;26;20052;-86
2021/01/03 16:09:25;;;;;;;18.73;14.50;;;;;;;9.90;61.81;99996.72;5346647;26;20055;-87
2021/01/03 16:11:53;;;;;;;19.98;14.68;;;;;;;9.99;61.50;100003.66;5346396;26;20076;-86
2021/01/03 16:14:20;;;;;;;18.23;14.50;;;;;;;9.91;61.73;100001.12;5344387;26;20110;-87
2021/01/03 16:16:47;;;;;;;21.42;14.60;;;;;;;9.16;64.93;100004.31;5344341;26;20638;-86
2021/01/03 16:19:40;;;;;;;21.15;16.45;;;;;;;9.74;62.75;99997.78;5325412;26;20144;-87
2021/01/03 16:22:51;;;;;;;20.00;14.57;;;;;;;9.89;62.35;99997.62;5314540;26;20068;-86
2021/01/03 16:25:59;;;;;;;25.75;18.55;;;;;;;9.19;65.45;100000.81;5325121;26;20133;-86
2021/01/03 16:28:56;;;;;;;21.35;15.50;;;;;;;8.38;68.86;99995.09;5347134;26;20119;-86
2021/01/03 16:31:26;;;;;;;20.80;14.75;;;;;;;8.81;67.73;99994.91;5329134;26;20367;-87
2021/01/03 16:34:48;;;;;;;17.62;13.55;;;;;;;9.23;65.89;99997.28;5348346;26;20104;-86
2021/01/03 16:37:43;;;;;;;17.85;14.85;;;;;;;9.58;64.40;99997.00;5256825;27;20072;-86
2021/01/03 16:40:13;;;;;;;17.08;13.05;;;;;;;9.80;63.78;100000.34;5344992;26;20445;-87
2021/01/03 16:43:04;;;;;;;20.85;15.13;;;;;;;9.87;63.53;99998.50;5345869;26;20052;-86
2021/01/03 17:23:34;;;;;;;148.55;96.53;;;;;;;8.55;69.69;100012.47;5298880;26;20140;-87
2021/01/03 17:26:52;;;;;;;154.50;106.53;;;;;;;8.78;68.39;100005.38;5348031;26;20062;-87
2021/01/03 17:30:17;;;;;;;146.45;101.60;;;;;;;9.26;66.70;100000.72;5331942;26;20037;-86
2021/01/03 17:33:02;;;;;;;182.15;119.75;;;;;;;9.53;65.60;100002.31;5349699;26;20071;-87
2021/01/03 17:35:32;;;;;;;135.07;92.18;;;;;;;9.64;64.47;100003.97;5329563;26;20056;-87
2021/01/03 17:38:19;;;;;;;128.68;88.95;;;;;;;9.71;64.01;100000.41;5329912;26;20060;-87
2021/01/03 17:41:09;;;;;;;100.28;65.45;;;;;;;9.53;63.97;100004.06;5330219;26;20060;-87
2021/01/03 17:43:38;;;;;;;75.12;53.70;;;;;;;9.62;63.15;100001.38;5329253;26;20528;-86
2021/01/03 17:46:07;;;;;;;47.38;33.05;;;;;;;9.55;62.98;100004.91;5349456;26;20090;-87
2021/01/03 17:48:38;;;;;;;52.62;38.22;;;;;;;9.67;62.52;100006.56;5348112;26;20024;-87
2021/01/03 17:51:05;;;;;;;39.35;28.48;;;;;;;9.67;62.30;100001.31;5329932;26;20067;-87
2021/01/03 17:53:37;;;;;;;45.80;33.47;;;;;;;9.79;61.78;100009.06;5348239;26;20379;-87
2021/01/03 17:56:06;;;;;;;45.63;31.80;;;;;;;9.74;61.70;100011.75;5329546;26;20028;-87
2021/01/03 17:58:33;;;;;;;46.33;31.77;;;;;;;9.70;61.66;100007.41;5347981;26;20116;-87
2021/01/03 18:01:00;;;;;;;48.10;34.58;;;;;;;9.74;61.22;100014.38;5349137;26;20060;-87
2021/01/03 18:03:28;;;;;;;39.28;29.00;;;;;;;9.67;61.17;100010.03;5349268;26;20073;-87
2021/01/03 18:05:55;;;;;;;36.13;26.15;;;;;;;9.71;61.34;100009.16;5330211;26;20454;-87
2021/01/03 18:08:24;;;;;;;38.20;27.87;;;;;;;9.71;61.51;100013.53;5349651;26;20052;-87
2021/01/03 18:10:51;;;;;;;45.55;34.67;;;;;;;9.67;61.67;100019.66;5348762;26;20106;-87
2021/01/03 18:13:17;;;;;;;51.00;35.95;;;;;;;9.59;61.98;100017.13;5328997;26;20068;-87
2021/01/03 18:15:45;;;;;;;54.45;40.60;;;;;;;9.64;61.86;100020.56;5328851;26;20068;-87
2021/01/03 18:18:11;;;;;;;58.72;41.58;;;;;;;9.49;62.48;100018.06;5347000;26;20028;-87
2021/01/03 18:20:39;;;;;;;65.80;48.65;;;;;;;9.51;62.47;100017.19;5328921;26;20071;-87
2021/01/03 18:23:05;;;;;;;133.77;83.72;;;;;;;9.52;62.64;100028.53;5347134;26;20793;-87
2021/01/03 18:25:32;;;;;;;190.23;117.13;;;;;;;9.64;62.27;100023.19;5347370;26;20074;-87
2021/01/03 18:27:59;;;;;;;138.05;97.88;;;;;;;9.12;64.45;100015.72;5327452;26;20531;-86
2021/01/03 18:30:28;;;;;;;115.22;84.25;;;;;;;8.76;66.20;100027.22;5347425;26;20117;-87
2021/01/03 18:32:55;;;;;;;63.95;47.10;;;;;;;8.98;66.17;100026.25;5346948;26;20088;-87
2021/01/03 18:35:25;;;;;;;124.70;91.15;;;;;;;8.64;68.39;100021.16;5327844;26;20070;-87
2021/01/03 18:37:52;;;;;;;152.48;103.05;;;;;;;8.23;70.82;100018.62;5345777;26;20069;-87
2021/01/03 18:40:19;;;;;;;116.30;78.10;;;;;;;8.77;68.04;100022.00;5346799;26;20069;-87
2021/01/03 18:42:46;;;;;;;109.57;72.65;;;;;;;8.94;66.51;100023.66;5327272;26;20044;-87
2021/01/03 18:45:14;;;;;;;100.60;66.60;;;;;;;9.21;65.11;100023.50;5327706;26;20131;-87
2021/01/03 18:47:40;;;;;;;73.75;51.83;;;;;;;9.19;65.24;100022.63;5346957;26;20083;-87
2021/01/03 18:50:16;;;;;;;75.93;52.78;;;;;;;9.31;64.95;100026.94;5345208;26;20111;-87
2021/01/03 18:52:43;;;;;;;64.40;43.65;;;;;;;9.30;64.57;100033.94;5345573;26;20067;-87
2021/01/03 18:55:10;;;;;;;51.97;37.72;;;;;;;9.08;65.37;100043.66;5346245;26;20070;-87
2021/01/03 18:57:37;;;;;;;43.35;31.08;;;;;;;9.27;64.60;100038.34;5344614;26;20048;-87
2021/01/03 19:00:05;;;;;;;44.03;30.45;;;;;;;9.20;64.55;100026.13;5326054;26;20800;-87
2021/01/03 19:02:33;;;;;;;41.05;28.60;;;;;;;9.19;64.85;100027.88;5344209;26;20765;-87
2021/01/03 19:05:02;;;;;;;46.28;32.15;;;;;;;9.23;64.92;100024.34;5346375;26;20544;-88
2021/01/03 19:07:28;;;;;;;46.78;31.35;;;;;;;9.20;64.92;100016.50;5346084;26;20088;-87
2021/01/03 19:09:55;;;;;;;35.92;27.62;;;;;;;9.66;63.30;100020.56;5327558;26;20065;-87
2021/01/03 19:12:24;;;;;;;39.80;28.77;;;;;;;9.55;63.33;100026.75;5326446;26;20064;-87
2021/01/03 19:14:54;;;;;;;42.62;29.25;;;;;;;9.06;65.07;100016.59;5346581;26;20051;-87
2021/01/03 19:17:22;;;;;;;37.38;26.95;;;;;;;8.76;66.58;100017.63;5346933;26;20084;-87
2021/01/03 19:19:49;;;;;;;36.58;28.87;;;;;;;9.11;65.24;100029.66;5345110;26;20122;-87
2021/01/03 19:22:17;;;;;;;38.05;29.05;;;;;;;9.32;64.65;100020.78;5346647;26;20067;-87
2021/01/03 19:24:44;;;;;;;47.30;34.35;;;;;;;9.17;65.01;100028.75;5346801;26;20064;-87
2021/01/03 19:27:12;;;;;;;105.50;71.87;;;;;;;8.40;69.06;100026.50;5346891;26;20055;-87
2021/01/03 19:29:39;;;;;;;116.32;86.37;;;;;;;8.35;69.92;100028.19;5346144;26;20124;-88
2021/01/03 19:32:06;;;;;;;126.50;85.62;;;;;;;8.27;70.23;100028.25;5346760;26;20068;-87
2021/01/03 19:34:33;;;;;;;141.40;103.28;;;;;;;8.17;70.28;100023.87;5346666;26;20056;-87
2021/01/03 19:37:02;;;;;;;139.95;103.53;;;;;;;8.22;70.53;100026.50;5346796;26;20071;-87
2021/01/03 19:39:35;;;;;;;132.40;98.65;;;;;;;8.63;68.98;100021.19;5344967;26;20069;-87
2021/01/03 19:42:10;;;;;;;110.95;74.72;;;;;;;8.51;68.97;100037.81;5326800;26;20503;-87
2021/01/03 19:44:38;;;;;;;162.85;105.60;;;;;;;8.08;70.92;100034.38;5326743;26;20851;-87
2021/01/03 19:47:07;;;;;;;124.15;81.72;;;;;;;8.73;68.49;100032.47;5345694;26;20071;-87
2021/01/03 19:49:34;;;;;;;;;;;;;;;8.03;71.14;100025.66;5346480;26;20075;-88
2021/01/03 19:52:02;;;;;;;86.30;63.95;;;;;;;8.61;68.97;100025.53;5326481;26;19976;-87
2021/01/03 19:54:29;;;;;;;81.28;58.40;;;;;;;8.84;67.73;100021.06;5326442;26;20155;-87
2021/01/03 19:56:57;;;;;;;75.55;52.42;;;;;;;8.90;67.13;100014.94;5345606;26;20067;-87
2021/01/03 19:59:25;;;;;;;75.35;54.08;;;;;;;8.76;67.88;100017.63;5326554;26;20064;-87
2021/01/03 20:01:53;;;;;;;74.68;54.35;;;;;;;8.91;67.34;100018.41;5326567;26;20469;-87
2021/01/03 20:04:21;;;;;;;75.80;54.10;;;;;;;8.79;67.19;100017.59;5348090;26;20059;-87
2021/01/03 20:06:48;;;;;;;72.65;53.42;;;;;;;8.86;66.94;100014.09;5347455;26;20057;-88
2021/01/03 20:09:15;;;;;;;63.53;45.72;;;;;;;8.76;66.56;100017.63;5328306;26;20119;-88
2021/01/03 20:11:41;;;;;;;48.40;34.67;;;;;;;8.93;65.51;100022.78;5346711;26;20427;-88
2021/01/03 20:14:08;;;;;;;44.45;33.42;;;;;;;8.74;65.24;100019.38;5346121;26;20067;-88
2021/01/03 20:16:37;;;;;;;30.35;23.30;;;;;;;8.93;64.31;100024.53;5325999;26;20044;-87
2021/01/03 20:19:09;;;;;;;26.73;22.30;;;;;;;8.61;65.46;100029.03;5346445;26;20056;-87
2021/01/03 20:21:36;;;;;;;28.50;23.48;;;;;;;8.25;66.02;100034.34;5345963;26;20347;-87
2021/01/03 20:24:04;;;;;;;29.02;23.17;;;;;;;8.29;65.96;100034.31;5345625;26;20131;-87
2021/01/03 20:26:30;;;;;;;30.35;23.33;;;;;;;7.83;67.49;100042.25;5345659;26;20116;-88
2021/01/03 20:28:58;;;;;;;30.48;21.73;;;;;;;7.86;67.92;100036.16;5345669;26;20118;-87
2021/01/03 20:31:27;;;;;;;37.58;27.95;;;;;;;8.36;65.94;100037.81;5345073;26;20059;-87
2021/01/03 20:33:54;;;;;;;63.90;44.28;;;;;;;7.34;70.30;100037.00;5344950;26;20048;-87
2021/01/03 20:36:21;;;;;;;63.83;44.63;;;;;;;7.19;71.19;100042.19;5324938;26;20108;-87
2021/01/03 20:38:48;;;;;;;57.00;41.97;;;;;;;7.37;70.83;100036.13;5344798;26;20124;-87
2021/01/03 20:41:17;;;;;;;76.00;57.90;;;;;;;7.44;70.55;100038.75;5345151;26;20098;-87
2021/01/03 20:43:44;;;;;;;84.28;58.45;;;;;;;7.61;69.98;100032.66;5344915;26;20094;-88
2021/01/03 20:46:14;;;;;;;78.05;57.55;;;;;;;8.08;68.17;100021.28;5344940;26;20737;-88
2021/01/03 20:48:40;;;;;;;;;;;;;;;8.29;67.27;100025.59;5345225;26;20071;-88
2021/01/03 20:51:07;;;;;;;64.07;47.15;;;;;;;7.89;68.52;100034.41;5344481;26;19982;-88
2021/01/03 20:53:33;;;;;;;47.97;35.15;;;;;;;8.10;67.69;100037.88;5324463;26;20056;-88
2021/01/03 20:56:00;;;;;;;32.00;26.05;;;;;;;8.20;67.13;100048.31;5344703;26;20071;-88
2021/01/03 20:58:27;;;;;;;36.63;26.30;;;;;;;8.21;66.43;100041.34;5345191;26;20402;-88
2021/01/03 21:00:53;;;;;;;45.35;35.25;;;;;;;8.06;67.58;100033.50;5344597;26;20076;-87
2021/01/03 21:03:20;;;;;;;51.53;39.80;;;;;;;7.95;68.29;100041.38;5344665;26;20059;-87
2021/01/03 21:05:46;;;;;;;72.68;53.33;;;;;;;7.83;69.33;100041.38;5344567;26;20120;-88
2021/01/03 21:08:13;;;;;;;63.45;47.38;;;;;;;7.99;68.76;100039.63;5345164;26;20060;-88
2021/01/03 21:10:40;;;;;;;94.50;67.37;;;;;;;8.08;68.43;100034.38;5345199;26;20056;-88
2021/01/03 21:13:06;;;;;;;80.47;59.00;;;;;;;8.18;68.08;100038.75;5344597;26;20422;-88
2021/01/03 21:15:33;;;;;;;66.75;48.80;;;;;;;8.38;67.35;100043.91;5343766;26;20869;-88
2021/01/03 21:17:59;;;;;;;44.85;32.88;;;;;;;7.97;68.22;100055.31;5343795;26;20409;-88
2021/01/03 21:20:27;;;;;;;36.53;27.23;;;;;;;7.92;67.94;100059.69;5324541;26;20618;-87
2021/01/03 21:22:55;;;;;;;37.00;26.25;;;;;;;7.95;67.30;100059.69;5344095;26;20068;-88
2021/01/03 21:25:25;;;;;;;35.05;26.10;;;;;;;8.01;67.61;100056.19;5344492;26;20058;-87
2021/01/03 21:28:23;;;;;;;29.75;24.42;;;;;;;8.35;66.73;100049.16;5342838;26;20375;-88
2021/01/03 21:31:06;;;;;;;36.97;25.62;;;;;;;8.33;66.79;100057.03;5344190;26;20449;-88
2021/01/03 21:33:52;;;;;;;35.00;27.20;;;;;;;8.33;66.19;100054.41;5324338;26;20064;-88
2021/01/03 21:36:31;;;;;;;32.17;25.75;;;;;;;8.41;65.70;100054.41;5344438;26;20021;-87
2021/01/03 21:38:57;;;;;;;35.95;26.37;;;;;;;8.44;65.40;100043.91;5344392;26;20432;-88
2021/01/03 21:41:30;;;;;;;28.30;22.15;;;;;;;8.33;65.93;100045.69;5342658;26;20444;-87
2021/01/03 21:44:11;;;;;;;27.17;20.50;;;;;;;8.48;65.54;100045.66;5344647;26;20734;-88
2021/01/03 21:46:50;;;;;;;32.58;24.10;;;;;;;8.37;65.29;100047.41;5345632;26;20109;-88
2021/01/03 21:49:49;;;;;;;36.15;27.08;;;;;;;8.47;64.87;100037.81;5325088;26;20064;-87
2021/01/03 21:52:33;;;;;;;36.47;25.85;;;;;;;8.48;64.79;100035.19;5326017;26;20064;-88
2021/01/03 21:55:57;;;;;;;38.25;27.45;;;;;;;8.34;64.99;100040.44;5326398;26;20068;-87
2021/01/03 21:59:12;;;;;;;38.42;27.25;;;;;;;8.32;64.70;100039.56;5254328;27;20062;-88
2021/01/03 22:01:53;;;;;;;39.17;26.00;;;;;;;8.28;63.85;100034.34;5253888;27;20094;-88
2021/01/03 22:04:38;;;;;;;35.65;25.27;;;;;;;8.08;64.05;100037.00;5334537;26;20062;-87
2021/01/03 22:07:13;;;;;;;32.10;23.42;;;;;;;8.10;63.81;100050.94;5325187;26;20056;-88
2021/01/03 22:10:14;;;;;;;34.50;26.05;;;;;;;8.04;63.48;100061.44;5324695;26;20449;-87
2021/01/03 22:13:12;;;;;;;31.37;22.83;;;;;;;8.07;63.00;100061.44;5345320;26;20057;-88
2021/01/03 22:16:13;;;;;;;28.70;22.08;;;;;;;7.91;62.43;100060.53;5335932;26;20076;-89
2021/01/03 22:18:42;;;;;;;34.17;25.05;;;;;;;8.13;61.92;100064.03;5344555;26;20052;-88
2021/01/03 22:21:26;;;;;;;33.38;25.50;;;;;;;8.18;61.57;100064.91;5344028;26;20482;-88
2021/01/03 22:24:04;;;;;;;34.13;24.98;;;;;;;8.04;61.80;100075.38;5342953;26;20137;-87
2021/01/03 22:26:42;;;;;;;36.50;27.95;;;;;;;7.27;65.39;100079.69;5343259;26;20161;-88
2021/01/03 22:29:45;;;;;;;41.20;28.35;;;;;;;7.60;64.50;100067.53;5323257;26;20063;-87
2021/01/03 22:32:17;;;;;;;38.50;27.87;;;;;;;7.52;65.15;100075.34;5322868;26;20052;-87
2021/01/03 22:35:02;;;;;;;37.13;24.70;;;;;;;7.21;66.74;100080.53;5343238;26;20519;-88
2021/01/03 22:37:34;;;;;;;40.30;27.80;;;;;;;7.36;65.45;100078.81;5343464;26;20064;-87
2021/01/03 22:40:28;;;;;;;42.30;30.35;;;;;;;7.53;64.54;100071.00;5342936;26;20068;-88